createdAt,value
2023-03-21T00:01:50.613Z,12.93
2023-03-21T00:04:17.904Z,11.73
2023-03-21T00:06:45.286Z,11.60
2023-03-21T00:09:12.830Z,11.32
2023-03-21T00:11:40.602Z,12.38
2023-03-21T00:14:08.907Z,10.00
2023-03-21T00:16:36.811Z,14.73
2023-03-21T00:19:07.450Z,14.25
2023-03-21T00:21:55.568Z,11.20
2023-03-21T00:24:25.927Z,11.45
2023-03-21T00:26:53.960Z,9.15
2023-03-21T00:29:21.346Z,11.23
2023-03-21T00:31:48.698Z,12.75
2023-03-21T00:34:17.705Z,10.23
2023-03-21T00:36:50.057Z,10.95
2023-03-21T00:39:17.231Z,12.20
2023-03-21T00:41:44.460Z,12.45
2023-03-21T00:44:16.150Z,12.38
2023-03-21T00:46:51.663Z,10.70
2023-03-21T00:49:27.930Z,9.95
2023-03-21T00:51:57.308Z,12.43
2023-03-21T00:54:27.094Z,12.43
2023-03-21T00:56:54.417Z,9.98
2023-03-21T00:59:21.628Z,9.38
2023-03-21T01:01:48.817Z,11.23
2023-03-21T01:04:16.987Z,9.73
2023-03-21T01:06:45.135Z,13.80
2023-03-21T01:09:19.116Z,11.23
2023-03-21T01:11:46.661Z,11.27
2023-03-21T01:14:22.352Z,10.13
2023-03-21T01:16:51.710Z,9.48
2023-03-21T01:19:29.225Z,9.15
2023-03-21T01:22:00.446Z,9.15
2023-03-21T01:24:27.661Z,10.02
2023-03-21T01:26:54.945Z,10.60
2023-03-21T01:29:22.203Z,9.43
2023-03-21T01:31:49.450Z,10.90
2023-03-21T01:34:16.642Z,9.10
2023-03-21T01:36:43.956Z,9.25
2023-03-21T01:39:11.496Z,10.65
2023-03-21T01:41:43.289Z,9.65
2023-03-21T01:44:20.850Z,9.93
2023-03-21T01:49:38.686Z,11.13
2023-03-21T01:52:13.078Z,9.48
2023-03-21T01:54:41.693Z,9.43
2023-03-21T01:57:10.898Z,9.27
2023-03-21T01:59:38.109Z,9.73
2023-03-21T02:02:09.910Z,9.43
2023-03-21T02:04:38.510Z,8.38
2023-03-21T02:07:08.152Z,12.13
2023-03-21T02:09:36.010Z,8.70
2023-03-21T02:12:03.462Z,8.63
2023-03-21T02:14:33.868Z,10.23
2023-03-21T02:17:30.765Z,8.38
2023-03-21T02:20:22.271Z,9.07
2023-03-21T02:23:07.472Z,10.18
2023-03-21T02:25:34.640Z,10.20
2023-03-21T02:28:04.970Z,9.25
2023-03-21T02:30:39.919Z,9.65
2023-03-21T02:33:16.653Z,9.13
2023-03-21T02:35:52.357Z,9.15
2023-03-21T02:38:30.304Z,8.55
2023-03-21T02:41:03.448Z,8.88
2023-03-21T02:44:03.254Z,8.75
2023-03-21T02:46:45.462Z,9.15
2023-03-21T02:49:25.029Z,11.65
2023-03-21T02:52:00.287Z,8.02
2023-03-21T02:54:47.233Z,9.93
2023-03-21T02:57:16.594Z,10.23
2023-03-21T02:59:53.186Z,8.52
2023-03-21T03:02:23.370Z,8.43
2023-03-21T03:04:50.666Z,8.75
2023-03-21T03:07:17.824Z,10.13
2023-03-21T03:10:03.233Z,8.90
2023-03-21T03:12:33.594Z,8.50
2023-03-21T03:15:06.528Z,8.95
2023-03-21T03:17:34.342Z,8.43
2023-03-21T03:20:16.640Z,8.63
2023-03-21T03:23:02.968Z,9.23
2023-03-21T03:25:50.424Z,10.48
2023-03-21T03:28:23.796Z,7.85
2023-03-21T03:31:07.505Z,9.00
2023-03-21T03:33:38.112Z,8.68
2023-03-21T03:36:07.174Z,9.05
2023-03-21T03:38:36.342Z,8.15
2023-03-21T03:41:05.381Z,8.15
2023-03-21T03:43:54.940Z,7.85
2023-03-21T03:46:29.280Z,8.73
2023-03-21T03:48:59.032Z,7.95
2023-03-21T03:51:32.291Z,14.20
2023-03-21T03:54:02.057Z,8.75
2023-03-21T03:56:29.747Z,7.90
2023-03-21T03:58:57.550Z,8.68
2023-03-21T04:01:24.808Z,9.35
2023-03-21T04:04:03.574Z,7.95
2023-03-21T04:06:38.569Z,7.70
2023-03-21T04:09:18.728Z,8.10
2023-03-21T04:11:47.756Z,8.35
2023-03-21T04:14:15.356Z,7.63
2023-03-21T04:16:42.556Z,8.68
2023-03-21T04:19:09.788Z,8.18
2023-03-21T04:21:37.135Z,7.95
2023-03-21T04:24:04.433Z,8.27
2023-03-21T04:26:33.622Z,7.68
2023-03-21T04:29:01.263Z,8.60
2023-03-21T04:31:31.007Z,7.55
2023-03-21T04:33:59.617Z,8.40
2023-03-21T04:36:38.725Z,7.80
2023-03-21T04:39:12.315Z,7.32
2023-03-21T04:41:40.701Z,8.05
2023-03-21T04:44:08.073Z,7.53
2023-03-21T04:46:35.766Z,7.60
2023-03-21T04:49:03.439Z,7.20
2023-03-21T04:51:30.829Z,7.78
2023-03-21T04:53:58.047Z,7.47
2023-03-21T04:56:32.088Z,7.47
2023-03-21T04:59:00.265Z,8.32
2023-03-21T05:01:30.660Z,11.63
2023-03-21T05:03:59.148Z,7.60
2023-03-21T05:06:27.914Z,8.07
2023-03-21T05:09:00.214Z,6.72
2023-03-21T05:11:28.315Z,7.43
2023-03-21T05:13:55.594Z,7.32
2023-03-21T05:16:26.906Z,7.25
2023-03-21T05:18:55.468Z,7.20
2023-03-21T05:21:23.001Z,7.38
2023-03-21T05:23:58.414Z,7.60
2023-03-21T05:26:25.880Z,7.38
2023-03-21T05:28:53.329Z,7.35
2023-03-21T05:31:20.797Z,8.05
2023-03-21T05:33:48.663Z,12.50
2023-03-21T05:36:16.409Z,8.05
2023-03-21T05:38:46.045Z,8.98
2023-03-21T05:41:19.203Z,9.27
2023-03-21T05:43:46.577Z,10.40
2023-03-21T05:46:13.845Z,9.60
2023-03-21T05:48:41.053Z,13.23
2023-03-21T05:51:08.222Z,12.70
2023-03-21T05:53:35.460Z,18.70
2023-03-21T05:56:03.122Z,13.48
2023-03-21T05:58:30.603Z,12.10
2023-03-21T06:00:57.833Z,9.13
2023-03-21T06:03:25.445Z,11.52
2023-03-21T06:05:52.724Z,9.65
2023-03-21T06:08:20.414Z,12.45
2023-03-21T06:10:47.750Z,9.35
2023-03-21T06:13:15.909Z,13.30
2023-03-21T06:15:43.166Z,14.98
2023-03-21T06:18:10.320Z,14.68
2023-03-21T06:20:37.501Z,11.20
2023-03-21T06:23:04.714Z,13.05
2023-03-21T06:25:31.908Z,12.48
2023-03-21T06:27:59.068Z,10.05
2023-03-21T06:30:26.414Z,12.23
2023-03-21T06:32:54.984Z,19.88
2023-03-21T06:35:22.178Z,9.55
2023-03-21T06:37:49.537Z,11.50
2023-03-21T06:40:16.932Z,15.55
2023-03-21T06:42:44.128Z,15.05
2023-03-21T06:45:11.542Z,17.38
2023-03-21T06:47:38.934Z,10.93
2023-03-21T06:50:07.096Z,15.23
2023-03-21T06:52:34.408Z,12.63
2023-03-21T06:55:01.695Z,16.05
2023-03-21T06:57:29.004Z,13.57
2023-03-21T06:59:56.257Z,12.00
2023-03-21T07:02:23.490Z,10.73
2023-03-21T07:04:50.940Z,14.60
2023-03-21T07:07:18.213Z,12.63
2023-03-21T07:09:45.442Z,14.80
2023-03-21T07:12:12.608Z,14.82
2023-03-21T07:14:40.248Z,12.15
2023-03-21T07:17:07.463Z,10.90
2023-03-21T07:19:34.688Z,10.55
2023-03-21T07:22:01.894Z,10.80
2023-03-21T07:24:29.148Z,14.68
2023-03-21T07:26:56.449Z,12.73
2023-03-21T07:29:24.953Z,15.43
2023-03-21T07:31:52.234Z,13.93
2023-03-21T07:34:19.496Z,14.00
2023-03-21T07:36:46.748Z,18.77
2023-03-21T07:39:13.974Z,14.43
2023-03-21T07:41:41.220Z,14.85
2023-03-21T07:44:08.463Z,14.50
2023-03-21T07:46:35.875Z,15.65
2023-03-21T07:49:03.102Z,15.48
2023-03-21T07:51:30.714Z,19.00
2023-03-21T07:53:58.424Z,18.45
2023-03-21T07:56:25.930Z,19.88
2023-03-21T07:58:53.246Z,17.83
2023-03-21T08:01:21.972Z,20.00
2023-03-21T08:03:51.914Z,18.40
2023-03-21T08:06:19.209Z,16.95
2023-03-21T08:08:46.762Z,20.10
2023-03-21T08:11:14.439Z,17.88
2023-03-21T08:13:41.854Z,18.00
2023-03-21T08:16:09.290Z,19.95
2023-03-21T08:18:36.460Z,19.23
2023-03-21T08:21:03.978Z,22.52
2023-03-21T08:23:31.237Z,19.73
2023-03-21T08:25:58.476Z,20.60
2023-03-21T08:28:25.789Z,21.77
2023-03-21T08:30:53.253Z,18.17
2023-03-21T08:33:21.013Z,23.25
2023-03-21T08:35:48.310Z,19.50
2023-03-21T08:38:16.088Z,20.73
2023-03-21T08:40:43.365Z,20.27
2023-03-21T08:43:10.526Z,18.25
2023-03-21T08:45:38.128Z,18.83
2023-03-21T08:48:06.320Z,19.65
2023-03-21T08:50:33.602Z,19.23
2023-03-21T08:53:00.849Z,28.80
2023-03-21T08:55:28.212Z,17.08
2023-03-21T08:57:55.793Z,16.45
2023-03-21T09:00:23.100Z,18.70
2023-03-21T09:02:52.069Z,15.90
2023-03-21T09:05:19.560Z,21.80
2023-03-21T09:07:46.786Z,16.95
2023-03-21T09:10:21.081Z,16.80
2023-03-21T09:12:49.864Z,15.88
2023-03-21T09:15:18.374Z,16.50
2023-03-21T09:17:50.362Z,16.27
2023-03-21T09:20:31.043Z,20.67
2023-03-21T09:22:59.159Z,15.60
2023-03-21T09:25:29.565Z,15.60
2023-03-21T09:27:58.174Z,18.60
2023-03-21T09:30:26.416Z,18.58
2023-03-21T09:32:55.752Z,15.95
2023-03-21T09:35:24.444Z,16.80
2023-03-21T09:37:51.858Z,18.70
2023-03-21T09:40:21.120Z,13.65
2023-03-21T09:43:07.360Z,15.13
2023-03-21T09:45:41.827Z,17.70
2023-03-21T09:48:17.492Z,16.60
2023-03-21T09:50:45.196Z,26.15
2023-03-21T09:53:16.709Z,13.93
2023-03-21T09:55:44.562Z,15.93
2023-03-21T09:58:12.010Z,14.80
2023-03-21T10:00:42.026Z,13.35
2023-03-21T10:03:29.614Z,14.20
2023-03-21T10:05:58.643Z,14.85
2023-03-21T10:08:30.798Z,16.48
2023-03-21T10:11:01.686Z,13.43
2023-03-21T10:13:30.490Z,13.07
2023-03-21T10:15:58.699Z,15.95
2023-03-21T10:18:27.796Z,11.63
2023-03-21T10:20:55.066Z,16.30
2023-03-21T10:23:26.419Z,13.60
2023-03-21T10:25:56.070Z,13.82
2023-03-21T10:28:24.963Z,11.35
2023-03-21T10:30:54.133Z,15.05
2023-03-21T10:33:24.195Z,12.88
2023-03-21T10:35:57.405Z,11.48
2023-03-21T10:38:26.450Z,11.13
2023-03-21T10:40:54.118Z,11.27
2023-03-21T10:43:30.543Z,11.60
2023-03-21T10:45:58.245Z,11.55
2023-03-21T10:48:26.222Z,10.77
2023-03-21T10:50:55.674Z,10.45
2023-03-21T10:53:28.467Z,12.98
2023-03-21T10:55:58.134Z,11.30
2023-03-21T10:58:29.764Z,11.43
2023-03-21T11:01:02.585Z,11.52
2023-03-21T11:03:43.607Z,13.60
2023-03-21T11:06:28.191Z,11.65
2023-03-21T11:08:57.769Z,14.00
2023-03-21T11:11:29.309Z,11.57
2023-03-21T11:14:07.233Z,10.73
2023-03-21T11:16:41.790Z,9.68
2023-03-21T11:19:15.351Z,14.90
2023-03-21T11:21:42.831Z,28.35
2023-03-21T11:24:19.732Z,30.50
2023-03-21T11:26:49.624Z,24.67
2023-03-21T11:29:36.804Z,20.67
2023-03-21T11:32:10.104Z,18.42
2023-03-21T11:34:46.478Z,13.07
2023-03-21T11:37:26.329Z,13.98
2023-03-21T11:39:58.101Z,12.80
2023-03-21T11:42:33.073Z,10.95
2023-03-21T11:45:02.073Z,20.10
2023-03-21T11:47:29.747Z,32.13
2023-03-21T11:50:04.624Z,19.48
2023-03-21T11:55:35.233Z,12.38
2023-03-21T11:58:13.428Z,11.60
2023-03-21T12:00:52.105Z,10.32
2023-03-21T12:03:41.474Z,15.32
2023-03-21T12:06:20.514Z,13.93
2023-03-21T12:08:59.730Z,15.02
2023-03-21T12:11:39.224Z,16.58
2023-03-21T12:14:10.853Z,17.02
2023-03-21T12:16:50.292Z,18.17
2023-03-21T12:19:23.308Z,16.20
2023-03-21T12:21:59.528Z,16.83
2023-03-21T12:24:37.490Z,17.75
2023-03-21T12:27:27.700Z,16.73
2023-03-21T12:30:21.404Z,15.45
2023-03-21T12:33:05.363Z,15.20
2023-03-21T12:36:04.909Z,14.75
2023-03-21T12:38:44.282Z,15.15
2023-03-21T12:41:27.356Z,14.93
2023-03-21T12:44:15.289Z,14.48
2023-03-21T12:46:45.821Z,13.73
2023-03-21T12:49:23.039Z,15.20
2023-03-21T12:51:52.314Z,15.65
2023-03-21T12:54:26.796Z,15.10
2023-03-21T12:56:57.030Z,14.68
2023-03-21T12:59:29.586Z,13.95
2023-03-21T13:01:58.821Z,14.13
2023-03-21T13:04:35.251Z,13.45
2023-03-21T13:07:04.133Z,12.52
2023-03-21T13:09:41.939Z,13.30
2023-03-21T13:12:18.415Z,13.10
2023-03-21T13:14:56.946Z,12.77
2023-03-21T13:17:28.036Z,12.75
2023-03-21T13:19:59.288Z,12.45
2023-03-21T13:22:30.334Z,12.32
2023-03-21T13:25:08.532Z,11.98
2023-03-21T13:27:37.135Z,12.55
2023-03-21T13:30:19.850Z,13.82
2023-03-21T13:32:49.269Z,14.65
2023-03-21T13:35:21.218Z,11.85
2023-03-21T13:37:57.747Z,11.35
2023-03-21T13:40:29.927Z,11.63
2023-03-21T13:43:00.936Z,11.40
2023-03-21T13:45:44.953Z,12.43
2023-03-21T13:48:32.540Z,10.95
2023-03-21T13:51:04.548Z,11.75
2023-03-21T13:53:33.162Z,12.30
2023-03-21T13:56:08.176Z,12.02
2023-03-21T13:58:51.625Z,10.32
2023-03-21T14:01:23.535Z,10.73
2023-03-21T14:03:50.936Z,10.50
2023-03-21T14:06:18.701Z,14.73
2023-03-21T14:08:48.206Z,11.23
2023-03-21T14:11:18.606Z,13.02
2023-03-21T14:13:51.187Z,9.43
2023-03-21T14:16:19.957Z,15.90
2023-03-21T14:18:55.118Z,14.25
2023-03-21T14:23:59.688Z,15.38
2023-03-21T14:26:31.298Z,12.50
2023-03-21T14:28:58.568Z,14.05
2023-03-21T14:31:27.111Z,13.65
2023-03-21T14:33:56.593Z,12.15
2023-03-21T14:36:28.414Z,13.45
2023-03-21T14:39:03.787Z,15.98
2023-03-21T14:41:31.581Z,13.25
2023-03-21T14:44:12.599Z,13.13
2023-03-21T14:46:41.873Z,16.88
2023-03-21T14:49:28.863Z,13.02
2023-03-21T14:51:57.439Z,16.55
2023-03-21T14:54:27.268Z,16.48
2023-03-21T14:57:00.732Z,15.38
2023-03-21T14:59:32.060Z,10.90
2023-03-21T15:02:00.456Z,10.40
2023-03-21T15:04:27.678Z,14.43
2023-03-21T15:06:59.463Z,11.80
2023-03-21T15:09:28.160Z,17.10
2023-03-21T15:11:56.503Z,15.68
2023-03-21T15:14:34.387Z,12.60
2023-03-21T15:17:04.019Z,19.90
2023-03-21T15:19:35.785Z,18.63
2023-03-21T15:22:07.035Z,14.90
2023-03-21T15:24:40.409Z,14.88
2023-03-21T15:27:18.806Z,14.07
2023-03-21T15:29:46.529Z,17.85
2023-03-21T15:32:16.063Z,12.25
2023-03-21T15:34:43.652Z,14.40
2023-03-21T15:37:17.079Z,12.05
2023-03-21T15:39:44.411Z,12.23
2023-03-21T15:42:29.002Z,12.80
2023-03-21T15:44:57.691Z,10.45
2023-03-21T15:47:39.660Z,10.45
2023-03-21T15:50:11.764Z,14.02
2023-03-21T15:52:39.121Z,11.90
2023-03-21T15:55:17.822Z,13.32
2023-03-21T15:57:51.737Z,11.77
2023-03-21T16:00:19.951Z,13.43
2023-03-21T16:02:47.893Z,12.23
2023-03-21T16:05:17.761Z,14.13
2023-03-21T16:07:48.616Z,12.98
2023-03-21T16:10:30.002Z,9.50
2023-03-21T16:12:58.263Z,13.10
2023-03-21T16:15:26.517Z,11.13
2023-03-21T16:18:01.466Z,14.88
2023-03-21T16:20:32.635Z,13.35
2023-03-21T16:22:59.935Z,10.18
2023-03-21T16:25:27.309Z,13.32
2023-03-21T16:27:54.562Z,14.18
2023-03-21T16:30:22.334Z,10.52
2023-03-21T16:32:50.617Z,16.42
2023-03-21T16:35:18.158Z,14.07
2023-03-21T16:37:45.773Z,10.95
2023-03-21T16:40:17.384Z,15.13
2023-03-21T16:42:45.490Z,13.13
2023-03-21T16:45:12.939Z,10.32
2023-03-21T16:47:40.303Z,9.63
2023-03-21T16:50:26.798Z,10.13
2023-03-21T16:52:57.555Z,10.88
2023-03-21T16:55:25.686Z,13.18
2023-03-21T16:57:53.709Z,12.52
2023-03-21T17:00:23.199Z,12.73
2023-03-21T17:02:54.903Z,19.15
2023-03-21T17:05:23.149Z,18.80
2023-03-21T17:07:50.472Z,10.75
2023-03-21T17:10:19.375Z,15.30
2023-03-21T17:12:46.790Z,18.35
2023-03-21T17:15:14.680Z,17.25
2023-03-21T17:17:42.945Z,11.10
2023-03-21T17:20:33.333Z,13.23
2023-03-21T17:23:01.034Z,19.00
2023-03-21T17:25:28.464Z,10.60
2023-03-21T17:27:56.243Z,13.93
2023-03-21T17:30:30.977Z,15.02
2023-03-21T17:32:58.843Z,16.95
2023-03-21T17:35:26.978Z,18.27
2023-03-21T17:37:54.524Z,15.95
2023-03-21T17:40:23.706Z,12.23
2023-03-21T17:42:51.882Z,14.00
2023-03-21T17:45:19.226Z,11.85
2023-03-21T17:47:46.513Z,16.27
2023-03-21T17:50:18.616Z,9.90
2023-03-21T17:52:46.148Z,10.30
2023-03-21T17:55:14.281Z,13.98
2023-03-21T17:57:41.507Z,12.40
2023-03-21T18:00:12.598Z,8.95
2023-03-21T18:02:40.986Z,14.73
2023-03-21T18:05:09.602Z,10.02
2023-03-21T18:08:07.913Z,10.55
2023-03-21T18:10:26.330Z,13.85
2023-03-21T18:12:56.633Z,13.65
2023-03-21T18:15:25.295Z,9.05
2023-03-21T18:17:52.999Z,9.48
2023-03-21T18:20:22.556Z,8.73
2023-03-21T18:22:52.220Z,12.77
2023-03-21T18:25:19.646Z,7.88
2023-03-21T18:28:09.488Z,12.02
2023-03-21T18:30:56.320Z,8.38
2023-03-21T18:33:21.759Z,9.43
2023-03-21T18:35:53.810Z,12.98
2023-03-21T18:38:26.021Z,7.65
2023-03-21T18:40:53.224Z,7.70
2023-03-21T18:44:01.125Z,6.47
2023-03-21T18:46:08.650Z,6.50
2023-03-21T18:48:36.179Z,8.57
2023-03-21T18:51:03.632Z,8.77
2023-03-21T18:53:31.156Z,8.43
2023-03-21T18:55:58.680Z,9.25
2023-03-21T18:58:26.045Z,7.22
2023-03-21T19:00:53.866Z,6.07
2023-03-21T19:03:35.252Z,8.32
2023-03-21T19:06:04.866Z,9.43
2023-03-21T19:08:34.555Z,8.02
2023-03-21T19:11:05.967Z,6.80
2023-03-21T19:13:34.127Z,6.63
2023-03-21T19:16:02.795Z,8.05
2023-03-21T19:18:53.030Z,9.07
2023-03-21T19:21:18.948Z,6.13
2023-03-21T19:26:33.844Z,9.93
2023-03-21T19:29:01.198Z,9.18
2023-03-21T19:31:28.428Z,6.95
2023-03-21T19:33:55.731Z,6.53
2023-03-21T19:36:23.552Z,6.63
2023-03-21T19:38:51.237Z,7.53
2023-03-21T19:41:20.233Z,5.55
2023-03-21T19:43:54.679Z,5.60
2023-03-21T19:46:25.156Z,8.43
2023-03-21T19:48:56.162Z,6.15
2023-03-21T19:51:30.156Z,5.95
2023-03-21T19:54:01.357Z,6.80
2023-03-21T19:56:28.844Z,5.97
2023-03-21T19:58:56.338Z,7.10
2023-03-21T20:01:24.667Z,7.43
2023-03-21T20:03:52.250Z,8.10
2023-03-21T20:06:19.807Z,8.10
2023-03-21T20:09:27.177Z,6.97
2023-03-21T20:11:34.641Z,6.85
2023-03-21T20:14:05.356Z,9.85
2023-03-21T20:16:35.815Z,5.20
2023-03-21T20:19:08.914Z,8.48
2023-03-21T20:21:46.212Z,8.05
2023-03-21T20:24:16.985Z,7.50
2023-03-21T20:26:45.199Z,5.45
2023-03-21T20:30:07.481Z,8.27
2023-03-21T20:32:01.478Z,10.45
2023-03-21T20:34:30.438Z,9.77
2023-03-21T20:36:58.377Z,10.77
2023-03-21T20:39:26.906Z,12.30
2023-03-21T20:41:55.299Z,9.05
2023-03-21T20:47:09.814Z,8.65
2023-03-21T20:49:37.216Z,10.63
2023-03-21T20:54:54.764Z,11.85
2023-03-21T20:57:22.219Z,11.20
2023-03-21T20:59:50.066Z,8.52
2023-03-21T21:02:17.460Z,10.60
2023-03-21T21:05:11.866Z,11.88
2023-03-21T21:07:32.295Z,9.38
2023-03-21T21:09:59.654Z,7.80
2023-03-21T21:12:28.525Z,9.63
2023-03-21T21:14:56.756Z,8.68
2023-03-21T21:17:42.856Z,8.57
2023-03-21T21:20:20.395Z,10.02
2023-03-21T21:22:59.054Z,6.60
2023-03-21T21:25:27.039Z,8.45
2023-03-21T21:27:54.189Z,6.65
2023-03-21T21:30:21.534Z,6.53
2023-03-21T21:32:49.543Z,13.68
2023-03-21T21:35:19.386Z,10.40
2023-03-21T21:37:47.174Z,7.72
2023-03-21T21:40:16.506Z,11.65
2023-03-21T21:42:44.486Z,8.45
2023-03-21T21:45:12.639Z,9.20
2023-03-21T21:47:40.076Z,8.75
2023-03-21T21:50:08.981Z,9.55
2023-03-21T21:52:37.359Z,11.27
2023-03-21T21:55:06.620Z,10.65
2023-03-21T21:57:34.846Z,11.02
2023-03-21T22:00:06.116Z,12.07
2023-03-21T22:02:33.399Z,13.50
2023-03-21T22:05:00.613Z,12.27
2023-03-21T22:07:27.963Z,10.80
2023-03-21T22:09:55.178Z,10.55
2023-03-21T22:12:22.452Z,15.25
2023-03-21T22:14:49.618Z,12.45
2023-03-21T22:17:16.963Z,11.63
2023-03-21T22:19:52.720Z,9.57
2023-03-21T22:22:26.559Z,14.40
2023-03-21T22:24:56.341Z,15.93
2023-03-21T22:27:23.902Z,12.00
2023-03-21T22:29:51.228Z,9.27
2023-03-21T22:32:19.177Z,10.38
2023-03-21T22:34:46.405Z,19.05
2023-03-21T22:37:13.869Z,9.88
2023-03-21T22:39:41.275Z,11.20
2023-03-21T22:42:08.453Z,13.10
2023-03-21T22:44:36.047Z,14.20
2023-03-21T22:47:07.615Z,11.85
2023-03-21T22:49:34.822Z,12.50
2023-03-21T22:52:03.675Z,13.80
2023-03-21T22:54:31.117Z,10.85
2023-03-21T22:56:58.380Z,12.63
2023-03-21T22:59:26.415Z,13.02
2023-03-21T23:01:54.600Z,18.73
2023-03-21T23:04:21.912Z,11.73
2023-03-21T23:06:49.205Z,13.90
2023-03-21T23:09:17.552Z,13.05
2023-03-21T23:11:48.880Z,13.93
2023-03-21T23:14:20.838Z,11.68
2023-03-21T23:16:49.658Z,11.23
2023-03-21T23:19:17.489Z,13.05
2023-03-21T23:21:44.723Z,20.52
2023-03-21T23:24:11.972Z,9.82
2023-03-21T23:26:39.700Z,9.90
2023-03-21T23:29:10.496Z,13.10
2023-03-21T23:31:37.819Z,14.98
2023-03-21T23:34:05.297Z,10.82
2023-03-21T23:36:32.511Z,11.35
2023-03-21T23:38:59.736Z,10.00
2023-03-21T23:41:26.998Z,8.48
2023-03-21T23:43:55.028Z,10.68
2023-03-21T23:46:22.425Z,9.93
2023-03-21T23:48:49.764Z,11.07
2023-03-21T23:51:18.799Z,9.18
2023-03-21T23:53:46.702Z,13.23
2023-03-21T23:56:18.990Z,7.50
2023-03-21T23:58:46.574Z,10.40
